sensor_id;sensor_type;location;lat;lon;timestamp;temperature;humidity
64143;DHT22;50437;51.970;5.904;2023-04-08T00:01:13;6.60;99.90
64143;DHT22;50437;51.970;5.904;2023-04-08T00:03:39;6.60;99.90
64143;DHT22;50437;51.970;5.904;2023-04-08T00:06:05;6.60;99.90
64143;DHT22;50437;51.970;5.904;2023-04-08T00:08:34;6.50;99.90
64143;DHT22;50437;51.970;5.904;2023-04-08T00:11:00;6.50;99.90
64143;DHT22;50437;51.970;5.904;2023-04-08T00:13:26;6.40;99.90
64143;DHT22;50437;51.970;5.904;2023-04-08T00:15:52;6.50;99.90
64143;DHT22;50437;51.970;5.904;2023-04-08T00:18:18;6.40;99.90
64143;DHT22;50437;51.970;5.904;2023-04-08T00:20:44;6.40;99.90
64143;DHT22;50437;51.970;5.904;2023-04-08T00:23:11;6.50;99.90
64143;DHT22;50437;51.970;5.904;2023-04-08T00:25:37;6.50;99.90
64143;DHT22;50437;51.970;5.904;2023-04-08T00:28:03;6.50;99.90
64143;DHT22;50437;51.970;5.904;2023-04-08T00:30:29;6.60;99.90
64143;DHT22;50437;51.970;5.904;2023-04-08T00:32:55;6.50;99.90
64143;DHT22;50437;51.970;5.904;2023-04-08T00:35:20;6.40;99.90
64143;DHT22;50437;51.970;5.904;2023-04-08T00:37:46;6.40;99.90
64143;DHT22;50437;51.970;5.904;2023-04-08T00:40:13;6.30;99.90
64143;DHT22;50437;51.970;5.904;2023-04-08T00:42:39;6.40;99.90
64143;DHT22;50437;51.970;5.904;2023-04-08T00:45:05;6.30;99.90
64143;DHT22;50437;51.970;5.904;2023-04-08T00:47:31;6.30;99.90
64143;DHT22;50437;51.970;5.904;2023-04-08T00:49:57;6.30;99.90
64143;DHT22;50437;51.970;5.904;2023-04-08T00:52:23;6.40;99.90
64143;DHT22;50437;51.970;5.904;2023-04-08T00:54:49;6.40;99.90
64143;DHT22;50437;51.970;5.904;2023-04-08T00:57:15;6.30;99.90
64143;DHT22;50437;51.970;5.904;2023-04-08T00:59:41;6.40;99.90
64143;DHT22;50437;51.970;5.904;2023-04-08T01:02:13;6.30;99.90
64143;DHT22;50437;51.970;5.904;2023-04-08T01:09:32;6.10;99.90
64143;DHT22;50437;51.970;5.904;2023-04-08T01:12:01;6.00;99.90
64143;DHT22;50437;51.970;5.904;2023-04-08T01:14:28;6.10;99.90
64143;DHT22;50437;51.970;5.904;2023-04-08T01:16:56;6.00;99.90
64143;DHT22;50437;51.970;5.904;2023-04-08T01:19:28;6.00;99.90
64143;DHT22;50437;51.970;5.904;2023-04-08T01:21:54;6.00;99.90
64143;DHT22;50437;51.970;5.904;2023-04-08T01:24:27;5.90;99.90
64143;DHT22;50437;51.970;5.904;2023-04-08T01:26:55;5.90;99.90
64143;DHT22;50437;51.970;5.904;2023-04-08T01:29:23;6.00;99.90
64143;DHT22;50437;51.970;5.904;2023-04-08T01:31:49;6.00;99.90
64143;DHT22;50437;51.970;5.904;2023-04-08T01:34:17;6.00;99.90
64143;DHT22;50437;51.970;5.904;2023-04-08T01:36:43;6.10;99.90
64143;DHT22;50437;51.970;5.904;2023-04-08T01:39:12;6.00;99.90
64143;DHT22;50437;51.970;5.904;2023-04-08T01:41:39;6.10;99.90
64143;DHT22;50437;51.970;5.904;2023-04-08T01:44:06;6.00;99.90
64143;DHT22;50437;51.970;5.904;2023-04-08T01:46:32;6.00;99.90
64143;DHT22;50437;51.970;5.904;2023-04-08T01:48:59;6.00;99.90
64143;DHT22;50437;51.970;5.904;2023-04-08T01:51:26;5.90;99.90
64143;DHT22;50437;51.970;5.904;2023-04-08T01:53:52;6.00;99.90
64143;DHT22;50437;51.970;5.904;2023-04-08T01:56:21;6.00;99.90
64143;DHT22;50437;51.970;5.904;2023-04-08T01:58:47;5.80;99.90
64143;DHT22;50437;51.970;5.904;2023-04-08T02:01:16;5.60;99.90
64143;DHT22;50437;51.970;5.904;2023-04-08T02:03:44;5.50;99.90
64143;DHT22;50437;51.970;5.904;2023-04-08T02:06:12;5.50;99.90
64143;DHT22;50437;51.970;5.904;2023-04-08T02:08:39;5.40;99.90
64143;DHT22;50437;51.970;5.904;2023-04-08T02:11:05;5.40;99.90
64143;DHT22;50437;51.970;5.904;2023-04-08T02:13:31;5.30;99.90
64143;DHT22;50437;51.970;5.904;2023-04-08T02:16:02;5.40;99.90
64143;DHT22;50437;51.970;5.904;2023-04-08T02:18:28;5.30;99.90
64143;DHT22;50437;51.970;5.904;2023-04-08T02:20:57;5.40;99.90
64143;DHT22;50437;51.970;5.904;2023-04-08T02:23:26;5.40;99.90
64143;DHT22;50437;51.970;5.904;2023-04-08T02:25:55;5.30;99.90
64143;DHT22;50437;51.970;5.904;2023-04-08T02:28:25;5.30;99.90
64143;DHT22;50437;51.970;5.904;2023-04-08T02:30:51;5.10;99.90
64143;DHT22;50437;51.970;5.904;2023-04-08T02:33:18;5.20;99.90
64143;DHT22;50437;51.970;5.904;2023-04-08T02:35:45;5.20;99.90
64143;DHT22;50437;51.970;5.904;2023-04-08T02:38:12;5.20;99.90
64143;DHT22;50437;51.970;5.904;2023-04-08T02:40:38;5.10;99.90
64143;DHT22;50437;51.970;5.904;2023-04-08T02:43:04;4.90;99.90
64143;DHT22;50437;51.970;5.904;2023-04-08T02:45:31;5.00;99.90
64143;DHT22;50437;51.970;5.904;2023-04-08T02:47:58;4.90;99.90
64143;DHT22;50437;51.970;5.904;2023-04-08T02:50:26;5.00;99.90
64143;DHT22;50437;51.970;5.904;2023-04-08T02:52:52;4.90;99.90
64143;DHT22;50437;51.970;5.904;2023-04-08T02:55:18;4.80;99.90
64143;DHT22;50437;51.970;5.904;2023-04-08T02:57:47;4.80;99.90
64143;DHT22;50437;51.970;5.904;2023-04-08T03:00:13;4.80;99.90
64143;DHT22;50437;51.970;5.904;2023-04-08T03:02:39;4.70;99.90
64143;DHT22;50437;51.970;5.904;2023-04-08T03:05:06;4.80;99.90
64143;DHT22;50437;51.970;5.904;2023-04-08T03:07:32;4.80;99.90
64143;DHT22;50437;51.970;5.904;2023-04-08T03:09:58;4.70;99.90
64143;DHT22;50437;51.970;5.904;2023-04-08T03:12:24;4.70;99.90
64143;DHT22;50437;51.970;5.904;2023-04-08T03:14:52;4.60;99.90
64143;DHT22;50437;51.970;5.904;2023-04-08T03:17:18;4.60;99.90
64143;DHT22;50437;51.970;5.904;2023-04-08T03:19:44;4.60;99.90
64143;DHT22;50437;51.970;5.904;2023-04-08T03:22:10;4.60;99.90
64143;DHT22;50437;51.970;5.904;2023-04-08T03:24:36;4.50;99.90
64143;DHT22;50437;51.970;5.904;2023-04-08T03:27:02;4.40;99.90
64143;DHT22;50437;51.970;5.904;2023-04-08T03:29:28;4.20;99.90
64143;DHT22;50437;51.970;5.904;2023-04-08T03:31:54;4.30;99.90
64143;DHT22;50437;51.970;5.904;2023-04-08T03:34:20;4.30;99.90
64143;DHT22;50437;51.970;5.904;2023-04-08T03:36:46;4.40;99.90
64143;DHT22;50437;51.970;5.904;2023-04-08T03:39:12;4.30;99.90
64143;DHT22;50437;51.970;5.904;2023-04-08T03:41:38;4.30;99.90
64143;DHT22;50437;51.970;5.904;2023-04-08T03:44:04;4.30;99.90
64143;DHT22;50437;51.970;5.904;2023-04-08T03:46:30;4.20;99.90
64143;DHT22;50437;51.970;5.904;2023-04-08T03:48:56;4.20;99.90
64143;DHT22;50437;51.970;5.904;2023-04-08T03:51:22;4.10;99.90
64143;DHT22;50437;51.970;5.904;2023-04-08T03:53:48;4.10;99.90
64143;DHT22;50437;51.970;5.904;2023-04-08T03:56:14;4.20;99.90
64143;DHT22;50437;51.970;5.904;2023-04-08T03:58:40;4.20;99.90
64143;DHT22;50437;51.970;5.904;2023-04-08T04:01:06;4.10;99.90
64143;DHT22;50437;51.970;5.904;2023-04-08T04:03:32;4.00;99.90
64143;DHT22;50437;51.970;5.904;2023-04-08T04:05:58;4.00;99.90
64143;DHT22;50437;51.970;5.904;2023-04-08T04:08:24;4.00;99.90
64143;DHT22;50437;51.970;5.904;2023-04-08T04:10:50;4.10;99.90
64143;DHT22;50437;51.970;5.904;2023-04-08T04:13:16;4.10;99.90
64143;DHT22;50437;51.970;5.904;2023-04-08T04:15:44;4.00;99.90
64143;DHT22;50437;51.970;5.904;2023-04-08T04:18:11;4.00;99.90
64143;DHT22;50437;51.970;5.904;2023-04-08T04:20:40;4.00;99.90
64143;DHT22;50437;51.970;5.904;2023-04-08T04:23:06;4.00;99.90
64143;DHT22;50437;51.970;5.904;2023-04-08T04:25:32;4.00;99.90
64143;DHT22;50437;51.970;5.904;2023-04-08T04:27:58;3.80;99.90
64143;DHT22;50437;51.970;5.904;2023-04-08T04:30:24;3.70;99.90
64143;DHT22;50437;51.970;5.904;2023-04-08T04:32:50;3.70;99.90
64143;DHT22;50437;51.970;5.904;2023-04-08T04:35:16;3.70;99.90
64143;DHT22;50437;51.970;5.904;2023-04-08T04:37:42;3.80;99.90
64143;DHT22;50437;51.970;5.904;2023-04-08T04:40:08;3.80;99.90
64143;DHT22;50437;51.970;5.904;2023-04-08T04:42:34;3.80;99.90
64143;DHT22;50437;51.970;5.904;2023-04-08T04:45:00;3.70;99.90
64143;DHT22;50437;51.970;5.904;2023-04-08T04:47:26;3.70;99.90
64143;DHT22;50437;51.970;5.904;2023-04-08T04:49:52;3.80;99.90
64143;DHT22;50437;51.970;5.904;2023-04-08T04:52:18;3.70;99.90
64143;DHT22;50437;51.970;5.904;2023-04-08T04:54:44;3.70;99.90
64143;DHT22;50437;51.970;5.904;2023-04-08T04:57:10;3.60;99.90
64143;DHT22;50437;51.970;5.904;2023-04-08T04:59:36;3.50;99.90
64143;DHT22;50437;51.970;5.904;2023-04-08T05:02:02;3.60;99.90
64143;DHT22;50437;51.970;5.904;2023-04-08T05:04:28;3.60;99.90
64143;DHT22;50437;51.970;5.904;2023-04-08T05:06:54;3.50;99.90
64143;DHT22;50437;51.970;5.904;2023-04-08T05:09:20;3.50;99.90
64143;DHT22;50437;51.970;5.904;2023-04-08T05:11:46;3.60;99.90
64143;DHT22;50437;51.970;5.904;2023-04-08T05:14:12;3.50;99.90
64143;DHT22;50437;51.970;5.904;2023-04-08T05:16:38;3.60;99.90
64143;DHT22;50437;51.970;5.904;2023-04-08T05:19:04;3.50;99.90
64143;DHT22;50437;51.970;5.904;2023-04-08T05:21:30;3.60;99.90
64143;DHT22;50437;51.970;5.904;2023-04-08T05:23:57;3.70;99.90
64143;DHT22;50437;51.970;5.904;2023-04-08T05:26:23;3.70;99.90
64143;DHT22;50437;51.970;5.904;2023-04-08T05:28:49;3.70;99.90
64143;DHT22;50437;51.970;5.904;2023-04-08T05:31:16;3.80;99.90
64143;DHT22;50437;51.970;5.904;2023-04-08T05:33:42;3.80;99.90
64143;DHT22;50437;51.970;5.904;2023-04-08T05:36:09;3.80;99.90
64143;DHT22;50437;51.970;5.904;2023-04-08T05:38:35;3.80;99.90
64143;DHT22;50437;51.970;5.904;2023-04-08T05:41:01;3.90;99.90
64143;DHT22;50437;51.970;5.904;2023-04-08T05:43:27;3.80;99.90
64143;DHT22;50437;51.970;5.904;2023-04-08T05:45:53;3.90;99.90
64143;DHT22;50437;51.970;5.904;2023-04-08T05:48:19;3.90;99.90
64143;DHT22;50437;51.970;5.904;2023-04-08T05:50:45;4.00;99.90
64143;DHT22;50437;51.970;5.904;2023-04-08T05:53:13;4.10;99.90
64143;DHT22;50437;51.970;5.904;2023-04-08T05:55:39;4.00;99.90
64143;DHT22;50437;51.970;5.904;2023-04-08T05:58:05;4.10;99.90
64143;DHT22;50437;51.970;5.904;2023-04-08T06:00:31;4.10;99.90
64143;DHT22;50437;51.970;5.904;2023-04-08T06:02:58;4.20;99.90
64143;DHT22;50437;51.970;5.904;2023-04-08T06:05:24;4.20;99.90
64143;DHT22;50437;51.970;5.904;2023-04-08T06:07:50;4.30;99.90
64143;DHT22;50437;51.970;5.904;2023-04-08T06:10:16;4.30;99.90
64143;DHT22;50437;51.970;5.904;2023-04-08T06:12:42;4.40;99.90
64143;DHT22;50437;51.970;5.904;2023-04-08T06:15:08;4.40;99.90
64143;DHT22;50437;51.970;5.904;2023-04-08T06:17:35;4.40;99.90
64143;DHT22;50437;51.970;5.904;2023-04-08T06:20:01;4.50;99.90
64143;DHT22;50437;51.970;5.904;2023-04-08T06:22:27;4.50;99.90
64143;DHT22;50437;51.970;5.904;2023-04-08T06:24:53;4.50;99.90
64143;DHT22;50437;51.970;5.904;2023-04-08T06:27:18;4.50;99.90
64143;DHT22;50437;51.970;5.904;2023-04-08T06:29:45;4.60;99.90
64143;DHT22;50437;51.970;5.904;2023-04-08T06:32:12;4.70;99.90
64143;DHT22;50437;51.970;5.904;2023-04-08T06:34:38;4.70;99.90
64143;DHT22;50437;51.970;5.904;2023-04-08T06:37:04;4.70;99.90
64143;DHT22;50437;51.970;5.904;2023-04-08T06:39:30;4.60;99.90
64143;DHT22;50437;51.970;5.904;2023-04-08T06:41:56;4.70;99.90
64143;DHT22;50437;51.970;5.904;2023-04-08T06:44:38;4.70;99.90
64143;DHT22;50437;51.970;5.904;2023-04-08T06:47:04;4.80;99.90
64143;DHT22;50437;51.970;5.904;2023-04-08T06:49:30;4.80;99.90
64143;DHT22;50437;51.970;5.904;2023-04-08T06:51:56;4.80;99.90
64143;DHT22;50437;51.970;5.904;2023-04-08T06:54:22;4.80;99.90
64143;DHT22;50437;51.970;5.904;2023-04-08T06:56:48;4.90;99.90
64143;DHT22;50437;51.970;5.904;2023-04-08T06:59:14;4.90;99.90
64143;DHT22;50437;51.970;5.904;2023-04-08T07:01:40;4.90;99.90
64143;DHT22;50437;51.970;5.904;2023-04-08T07:04:06;4.90;99.90
64143;DHT22;50437;51.970;5.904;2023-04-08T07:06:32;5.00;99.90
64143;DHT22;50437;51.970;5.904;2023-04-08T07:08:58;5.10;99.90
64143;DHT22;50437;51.970;5.904;2023-04-08T07:11:24;5.20;99.90
64143;DHT22;50437;51.970;5.904;2023-04-08T07:13:51;5.20;99.90
64143;DHT22;50437;51.970;5.904;2023-04-08T07:16:17;5.20;99.90
64143;DHT22;50437;51.970;5.904;2023-04-08T07:18:43;5.30;99.90
64143;DHT22;50437;51.970;5.904;2023-04-08T07:21:09;5.30;99.90
64143;DHT22;50437;51.970;5.904;2023-04-08T07:23:35;5.40;99.90
64143;DHT22;50437;51.970;5.904;2023-04-08T07:26:02;5.40;99.90
64143;DHT22;50437;51.970;5.904;2023-04-08T07:28:28;5.50;99.90
64143;DHT22;50437;51.970;5.904;2023-04-08T07:30:54;5.50;99.90
64143;DHT22;50437;51.970;5.904;2023-04-08T07:33:20;5.60;99.90
64143;DHT22;50437;51.970;5.904;2023-04-08T07:35:48;5.60;99.90
64143;DHT22;50437;51.970;5.904;2023-04-08T07:38:14;5.70;99.90
64143;DHT22;50437;51.970;5.904;2023-04-08T07:40:40;5.80;99.90
64143;DHT22;50437;51.970;5.904;2023-04-08T07:43:06;5.80;99.90
64143;DHT22;50437;51.970;5.904;2023-04-08T07:45:34;5.90;99.90
64143;DHT22;50437;51.970;5.904;2023-04-08T07:48:00;5.90;99.90
64143;DHT22;50437;51.970;5.904;2023-04-08T07:50:26;6.00;99.90
64143;DHT22;50437;51.970;5.904;2023-04-08T07:52:52;6.10;99.90
64143;DHT22;50437;51.970;5.904;2023-04-08T07:55:21;6.10;99.90
64143;DHT22;50437;51.970;5.904;2023-04-08T07:57:47;6.20;99.90
64143;DHT22;50437;51.970;5.904;2023-04-08T08:00:13;6.30;99.90
64143;DHT22;50437;51.970;5.904;2023-04-08T08:02:45;6.30;99.90
64143;DHT22;50437;51.970;5.904;2023-04-08T08:05:11;6.40;99.90
64143;DHT22;50437;51.970;5.904;2023-04-08T08:07:37;6.50;99.90
64143;DHT22;50437;51.970;5.904;2023-04-08T08:10:03;6.70;99.90
64143;DHT22;50437;51.970;5.904;2023-04-08T08:12:29;6.70;99.90
64143;DHT22;50437;51.970;5.904;2023-04-08T08:14:55;6.90;99.90
64143;DHT22;50437;51.970;5.904;2023-04-08T08:17:24;7.00;99.90
64143;DHT22;50437;51.970;5.904;2023-04-08T08:19:50;7.10;99.90
64143;DHT22;50437;51.970;5.904;2023-04-08T08:22:16;7.20;99.90
64143;DHT22;50437;51.970;5.904;2023-04-08T08:24:42;7.40;99.90
64143;DHT22;50437;51.970;5.904;2023-04-08T08:27:11;8.20;99.90
64143;DHT22;50437;51.970;5.904;2023-04-08T08:29:36;10.20;99.90
64143;DHT22;50437;51.970;5.904;2023-04-08T08:32:03;10.70;99.90
64143;DHT22;50437;51.970;5.904;2023-04-08T08:34:29;12.00;99.90
64143;DHT22;50437;51.970;5.904;2023-04-08T08:36:55;13.30;99.90
64143;DHT22;50437;51.970;5.904;2023-04-08T08:39:21;13.60;99.90
64143;DHT22;50437;51.970;5.904;2023-04-08T08:41:50;14.30;99.90
64143;DHT22;50437;51.970;5.904;2023-04-08T08:44:16;14.30;95.60
64143;DHT22;50437;51.970;5.904;2023-04-08T08:46:45;14.20;93.60
64143;DHT22;50437;51.970;5.904;2023-04-08T08:49:11;14.50;92.90
64143;DHT22;50437;51.970;5.904;2023-04-08T08:51:38;15.00;90.60
64143;DHT22;50437;51.970;5.904;2023-04-08T08:54:05;15.80;90.70
64143;DHT22;50437;51.970;5.904;2023-04-08T08:56:34;15.90;80.10
64143;DHT22;50437;51.970;5.904;2023-04-08T08:59:00;16.50;77.30
64143;DHT22;50437;51.970;5.904;2023-04-08T09:01:29;16.80;73.60
64143;DHT22;50437;51.970;5.904;2023-04-08T09:06:33;15.80;73.20
64143;DHT22;50437;51.970;5.904;2023-04-08T09:08:59;16.20;70.40
64143;DHT22;50437;51.970;5.904;2023-04-08T09:11:28;16.60;71.90
64143;DHT22;50437;51.970;5.904;2023-04-08T09:13:54;16.20;69.00
64143;DHT22;50437;51.970;5.904;2023-04-08T09:16:21;16.40;69.80
64143;DHT22;50437;51.970;5.904;2023-04-08T09:18:48;16.30;65.10
64143;DHT22;50437;51.970;5.904;2023-04-08T09:21:15;17.20;70.70
64143;DHT22;50437;51.970;5.904;2023-04-08T09:23:43;17.00;68.80
64143;DHT22;50437;51.970;5.904;2023-04-08T09:26:15;17.30;68.40
64143;DHT22;50437;51.970;5.904;2023-04-08T09:28:42;17.70;66.30
64143;DHT22;50437;51.970;5.904;2023-04-08T09:31:28;18.00;66.30
64143;DHT22;50437;51.970;5.904;2023-04-08T09:33:58;17.50;64.30
64143;DHT22;50437;51.970;5.904;2023-04-08T09:36:25;18.60;62.70
64143;DHT22;50437;51.970;5.904;2023-04-08T09:38:54;18.60;57.20
64143;DHT22;50437;51.970;5.904;2023-04-08T09:41:20;18.50;55.60
64143;DHT22;50437;51.970;5.904;2023-04-08T09:46:15;18.50;53.90
64143;DHT22;50437;51.970;5.904;2023-04-08T09:48:45;19.10;56.10
64143;DHT22;50437;51.970;5.904;2023-04-08T09:51:14;19.10;53.30
64143;DHT22;50437;51.970;5.904;2023-04-08T09:53:44;19.40;51.40
64143;DHT22;50437;51.970;5.904;2023-04-08T09:56:11;19.60;50.70
64143;DHT22;50437;51.970;5.904;2023-04-08T09:58:40;19.50;47.70
64143;DHT22;50437;51.970;5.904;2023-04-08T10:01:07;19.20;48.70
64143;DHT22;50437;51.970;5.904;2023-04-08T10:03:44;19.30;53.70
64143;DHT22;50437;51.970;5.904;2023-04-08T10:06:12;18.80;50.60
64143;DHT22;50437;51.970;5.904;2023-04-08T10:08:38;18.60;50.80
64143;DHT22;50437;51.970;5.904;2023-04-08T10:11:03;19.10;51.20
64143;DHT22;50437;51.970;5.904;2023-04-08T10:13:29;19.30;49.90
64143;DHT22;50437;51.970;5.904;2023-04-08T10:18:41;19.80;47.70
64143;DHT22;50437;51.970;5.904;2023-04-08T10:21:29;19.90;49.70
64143;DHT22;50437;51.970;5.904;2023-04-08T10:23:56;20.10;46.80
64143;DHT22;50437;51.970;5.904;2023-04-08T10:26:31;20.20;48.70
64143;DHT22;50437;51.970;5.904;2023-04-08T10:31:45;20.40;49.70
64143;DHT22;50437;51.970;5.904;2023-04-08T10:34:14;20.70;45.80
64143;DHT22;50437;51.970;5.904;2023-04-08T10:36:40;21.30;43.10
64143;DHT22;50437;51.970;5.904;2023-04-08T10:39:06;20.80;44.20
64143;DHT22;50437;51.970;5.904;2023-04-08T10:41:32;19.20;47.50
64143;DHT22;50437;51.970;5.904;2023-04-08T10:43:58;17.90;49.00
64143;DHT22;50437;51.970;5.904;2023-04-08T10:46:26;16.90;52.10
64143;DHT22;50437;51.970;5.904;2023-04-08T10:48:59;16.40;48.40
64143;DHT22;50437;51.970;5.904;2023-04-08T10:51:25;15.90;52.10
64143;DHT22;50437;51.970;5.904;2023-04-08T10:53:54;15.60;54.80
64143;DHT22;50437;51.970;5.904;2023-04-08T10:56:23;15.20;55.50
64143;DHT22;50437;51.970;5.904;2023-04-08T10:58:50;15.10;55.30
64143;DHT22;50437;51.970;5.904;2023-04-08T11:01:17;15.00;52.20
64143;DHT22;50437;51.970;5.904;2023-04-08T11:03:43;15.20;53.10
64143;DHT22;50437;51.970;5.904;2023-04-08T11:06:09;15.70;57.30
64143;DHT22;50437;51.970;5.904;2023-04-08T11:08:36;15.70;55.30
64143;DHT22;50437;51.970;5.904;2023-04-08T11:11:02;15.70;53.70
64143;DHT22;50437;51.970;5.904;2023-04-08T11:13:30;16.00;53.60
64143;DHT22;50437;51.970;5.904;2023-04-08T11:15:59;16.10;53.30
64143;DHT22;50437;51.970;5.904;2023-04-08T11:18:25;16.50;54.00
64143;DHT22;50437;51.970;5.904;2023-04-08T11:20:52;17.60;51.20
64143;DHT22;50437;51.970;5.904;2023-04-08T11:23:18;17.60;48.40
64143;DHT22;50437;51.970;5.904;2023-04-08T11:25:47;17.40;48.30
64143;DHT22;50437;51.970;5.904;2023-04-08T11:28:13;17.20;48.60
64143;DHT22;50437;51.970;5.904;2023-04-08T11:30:39;16.60;46.40
64143;DHT22;50437;51.970;5.904;2023-04-08T11:33:06;16.50;45.30
64143;DHT22;50437;51.970;5.904;2023-04-08T11:35:32;16.50;49.10
64143;DHT22;50437;51.970;5.904;2023-04-08T11:37:58;16.50;46.90
64143;DHT22;50437;51.970;5.904;2023-04-08T11:40:24;16.30;47.10
64143;DHT22;50437;51.970;5.904;2023-04-08T11:42:51;16.20;48.50
64143;DHT22;50437;51.970;5.904;2023-04-08T11:45:18;16.20;48.40
64143;DHT22;50437;51.970;5.904;2023-04-08T11:47:44;16.10;45.50
64143;DHT22;50437;51.970;5.904;2023-04-08T11:50:11;15.90;48.00
64143;DHT22;50437;51.970;5.904;2023-04-08T11:55:10;15.60;48.20
64143;DHT22;50437;51.970;5.904;2023-04-08T11:57:37;15.30;52.30
64143;DHT22;50437;51.970;5.904;2023-04-08T12:00:04;15.10;54.90
64143;DHT22;50437;51.970;5.904;2023-04-08T12:02:36;15.10;53.00
64143;DHT22;50437;51.970;5.904;2023-04-08T12:05:02;14.90;50.30
64143;DHT22;50437;51.970;5.904;2023-04-08T12:07:28;15.00;52.70
64143;DHT22;50437;51.970;5.904;2023-04-08T12:09:54;15.10;53.30
64143;DHT22;50437;51.970;5.904;2023-04-08T12:12:20;15.20;52.60
64143;DHT22;50437;51.970;5.904;2023-04-08T12:14:46;15.20;52.00
64143;DHT22;50437;51.970;5.904;2023-04-08T12:17:12;15.40;53.50
64143;DHT22;50437;51.970;5.904;2023-04-08T12:19:38;15.40;51.50
64143;DHT22;50437;51.970;5.904;2023-04-08T12:22:04;15.40;52.00
64143;DHT22;50437;51.970;5.904;2023-04-08T12:24:30;15.10;52.40
64143;DHT22;50437;51.970;5.904;2023-04-08T12:26:56;15.40;57.20
64143;DHT22;50437;51.970;5.904;2023-04-08T12:29:22;16.20;54.10
64143;DHT22;50437;51.970;5.904;2023-04-08T12:31:48;16.40;53.10
64143;DHT22;50437;51.970;5.904;2023-04-08T12:34:14;16.60;53.30
64143;DHT22;50437;51.970;5.904;2023-04-08T12:36:41;17.30;54.00
64143;DHT22;50437;51.970;5.904;2023-04-08T12:39:07;16.80;50.00
64143;DHT22;50437;51.970;5.904;2023-04-08T12:41:33;16.50;50.90
64143;DHT22;50437;51.970;5.904;2023-04-08T12:43:59;16.50;52.70
64143;DHT22;50437;51.970;5.904;2023-04-08T12:46:25;16.30;51.00
64143;DHT22;50437;51.970;5.904;2023-04-08T12:48:51;16.30;54.10
64143;DHT22;50437;51.970;5.904;2023-04-08T12:51:17;15.90;52.30
64143;DHT22;50437;51.970;5.904;2023-04-08T12:53:43;16.00;49.60
64143;DHT22;50437;51.970;5.904;2023-04-08T12:56:09;16.10;52.30
64143;DHT22;50437;51.970;5.904;2023-04-08T12:58:35;16.30;50.80
64143;DHT22;50437;51.970;5.904;2023-04-08T13:01:01;16.10;49.20
64143;DHT22;50437;51.970;5.904;2023-04-08T13:03:27;16.20;50.90
64143;DHT22;50437;51.970;5.904;2023-04-08T13:05:56;16.10;53.50
64143;DHT22;50437;51.970;5.904;2023-04-08T13:08:24;16.10;52.20
64143;DHT22;50437;51.970;5.904;2023-04-08T13:10:49;16.10;53.70
64143;DHT22;50437;51.970;5.904;2023-04-08T13:13:15;15.70;53.70
64143;DHT22;50437;51.970;5.904;2023-04-08T13:15:41;15.70;52.90
64143;DHT22;50437;51.970;5.904;2023-04-08T13:18:08;15.80;53.80
64143;DHT22;50437;51.970;5.904;2023-04-08T13:20:34;15.50;54.10
64143;DHT22;50437;51.970;5.904;2023-04-08T13:23:01;15.40;55.80
64143;DHT22;50437;51.970;5.904;2023-04-08T13:25:27;15.60;54.60
64143;DHT22;50437;51.970;5.904;2023-04-08T13:27:53;15.60;54.70
64143;DHT22;50437;51.970;5.904;2023-04-08T13:30:19;15.50;56.20
64143;DHT22;50437;51.970;5.904;2023-04-08T13:32:45;15.30;56.80
64143;DHT22;50437;51.970;5.904;2023-04-08T13:35:11;15.30;58.20
64143;DHT22;50437;51.970;5.904;2023-04-08T13:37:37;15.30;58.90
64143;DHT22;50437;51.970;5.904;2023-04-08T13:40:03;15.50;59.80
64143;DHT22;50437;51.970;5.904;2023-04-08T13:42:33;15.50;57.70
64143;DHT22;50437;51.970;5.904;2023-04-08T13:44:59;15.50;57.50
64143;DHT22;50437;51.970;5.904;2023-04-08T13:47:25;15.60;55.50
64143;DHT22;50437;51.970;5.904;2023-04-08T13:49:51;15.40;54.10
64143;DHT22;50437;51.970;5.904;2023-04-08T13:52:18;15.30;56.20
64143;DHT22;50437;51.970;5.904;2023-04-08T13:54:44;15.40;54.60
64143;DHT22;50437;51.970;5.904;2023-04-08T13:57:10;15.10;53.80
64143;DHT22;50437;51.970;5.904;2023-04-08T13:59:36;15.00;52.20
64143;DHT22;50437;51.970;5.904;2023-04-08T14:02:02;15.10;54.30
64143;DHT22;50437;51.970;5.904;2023-04-08T14:04:28;15.00;55.40
64143;DHT22;50437;51.970;5.904;2023-04-08T14:06:54;15.20;55.70
64143;DHT22;50437;51.970;5.904;2023-04-08T14:09:22;15.00;56.70
64143;DHT22;50437;51.970;5.904;2023-04-08T14:11:48;15.00;56.20
64143;DHT22;50437;51.970;5.904;2023-04-08T14:14:15;15.00;57.30
64143;DHT22;50437;51.970;5.904;2023-04-08T14:16:41;15.00;57.80
64143;DHT22;50437;51.970;5.904;2023-04-08T14:19:07;14.80;60.40
64143;DHT22;50437;51.970;5.904;2023-04-08T14:21:32;14.70;59.30
64143;DHT22;50437;51.970;5.904;2023-04-08T14:23:59;14.70;61.40
64143;DHT22;50437;51.970;5.904;2023-04-08T14:26:25;14.60;61.80
64143;DHT22;50437;51.970;5.904;2023-04-08T14:28:51;14.70;61.40
64143;DHT22;50437;51.970;5.904;2023-04-08T14:31:17;14.70;61.90
64143;DHT22;50437;51.970;5.904;2023-04-08T14:33:45;15.00;61.30
64143;DHT22;50437;51.970;5.904;2023-04-08T14:36:12;15.10;60.30
64143;DHT22;50437;51.970;5.904;2023-04-08T14:38:38;15.20;63.50
64143;DHT22;50437;51.970;5.904;2023-04-08T14:41:07;15.30;60.60
64143;DHT22;50437;51.970;5.904;2023-04-08T14:43:36;15.20;60.10
64143;DHT22;50437;51.970;5.904;2023-04-08T14:46:02;15.30;60.00
64143;DHT22;50437;51.970;5.904;2023-04-08T14:48:28;15.40;60.10
64143;DHT22;50437;51.970;5.904;2023-04-08T14:50:55;15.30;58.60
64143;DHT22;50437;51.970;5.904;2023-04-08T14:53:22;15.50;62.70
64143;DHT22;50437;51.970;5.904;2023-04-08T14:55:48;15.30;63.00
64143;DHT22;50437;51.970;5.904;2023-04-08T14:58:14;15.50;65.70
64143;DHT22;50437;51.970;5.904;2023-04-08T15:00:40;15.60;63.20
64143;DHT22;50437;51.970;5.904;2023-04-08T15:03:10;15.30;65.80
64143;DHT22;50437;51.970;5.904;2023-04-08T15:05:36;15.30;65.50
64143;DHT22;50437;51.970;5.904;2023-04-08T15:08:03;15.20;66.60
64143;DHT22;50437;51.970;5.904;2023-04-08T15:10:29;15.20;65.80
64143;DHT22;50437;51.970;5.904;2023-04-08T15:12:55;15.50;67.10
64143;DHT22;50437;51.970;5.904;2023-04-08T15:15:22;15.40;66.60
64143;DHT22;50437;51.970;5.904;2023-04-08T15:17:48;15.50;66.90
64143;DHT22;50437;51.970;5.904;2023-04-08T15:20:16;15.70;67.90
64143;DHT22;50437;51.970;5.904;2023-04-08T15:22:43;15.90;69.10
64143;DHT22;50437;51.970;5.904;2023-04-08T15:25:09;15.80;69.80
64143;DHT22;50437;51.970;5.904;2023-04-08T15:27:35;15.70;70.60
64143;DHT22;50437;51.970;5.904;2023-04-08T15:30:05;15.60;70.30
64143;DHT22;50437;51.970;5.904;2023-04-08T15:32:34;15.30;72.00
64143;DHT22;50437;51.970;5.904;2023-04-08T15:35:00;15.40;75.20
64143;DHT22;50437;51.970;5.904;2023-04-08T15:37:26;15.40;77.50
64143;DHT22;50437;51.970;5.904;2023-04-08T15:39:54;15.30;79.90
64143;DHT22;50437;51.970;5.904;2023-04-08T15:42:21;15.00;81.30
64143;DHT22;50437;51.970;5.904;2023-04-08T15:44:47;15.00;87.30
64143;DHT22;50437;51.970;5.904;2023-04-08T15:47:15;15.30;89.10
64143;DHT22;50437;51.970;5.904;2023-04-08T15:49:41;15.20;90.60
64143;DHT22;50437;51.970;5.904;2023-04-08T15:52:07;15.40;91.60
64143;DHT22;50437;51.970;5.904;2023-04-08T15:54:33;15.40;90.60